createdAt,value
2019-01-29T00:02:15.663Z,97901.09
2019-01-29T00:04:44.042Z,97898.00
2019-01-29T00:07:12.542Z,97905.05
2019-01-29T00:09:40.977Z,97899.78
2019-01-29T00:12:10.118Z,97905.39
2019-01-29T00:14:38.510Z,97904.80
2019-01-29T00:17:06.953Z,97897.87
2019-01-29T00:19:35.327Z,97904.45
2019-01-29T00:22:03.701Z,97902.64
2019-01-29T00:24:32.080Z,97907.09
2019-01-29T00:27:00.470Z,97908.75
2019-01-29T00:29:28.847Z,97906.59
2019-01-29T00:31:57.223Z,97910.53
2019-01-29T00:34:25.606Z,97909.59
2019-01-29T00:36:54.041Z,97914.87
2019-01-29T00:39:22.458Z,97921.33
2019-01-29T00:41:50.831Z,97917.38
2019-01-29T00:44:19.203Z,97917.38
2019-01-29T00:46:47.577Z,97920.86
2019-01-29T00:49:15.968Z,97923.48
2019-01-29T00:51:44.350Z,97918.69
2019-01-29T00:54:12.734Z,97927.78
2019-01-29T00:56:41.101Z,97923.96
2019-01-29T00:59:10.532Z,97927.44
2019-01-29T01:01:38.909Z,97932.20
2019-01-29T01:04:07.276Z,97930.77
2019-01-29T01:06:35.665Z,97932.59
2019-01-29T01:09:05.918Z,97936.88
2019-01-29T01:11:34.286Z,97938.66
2019-01-29T01:14:02.667Z,97942.15
2019-01-29T01:16:31.038Z,97936.88
2019-01-29T01:18:59.409Z,97944.31
2019-01-29T01:21:27.782Z,97948.73
2019-01-29T01:23:56.174Z,97952.68
2019-01-29T01:26:24.616Z,97953.53
2019-01-29T01:28:52.987Z,97958.67
2019-01-29T01:31:21.360Z,97965.27
2019-01-29T01:33:49.729Z,97965.73
2019-01-29T01:36:18.108Z,97973.16
2019-01-29T01:38:46.482Z,97977.11
2019-01-29T01:41:14.846Z,97972.31
2019-01-29T01:43:43.238Z,97972.19
2019-01-29T01:46:11.608Z,97971.25
2019-01-29T01:48:40.800Z,97972.19
2019-01-29T01:51:09.185Z,97972.09
2019-01-29T01:53:37.560Z,97966.83
2019-01-29T01:56:05.928Z,97969.94
2019-01-29T01:58:34.296Z,97977.72
2019-01-29T02:01:02.754Z,97973.77
2019-01-29T02:03:31.121Z,97970.28
2019-01-29T02:05:59.515Z,97979.03
2019-01-29T02:08:27.877Z,97979.88
2019-01-29T02:10:56.254Z,97977.24
2019-01-29T02:13:24.618Z,97979.03
2019-01-29T02:15:52.992Z,97978.91
2019-01-29T02:18:21.374Z,97981.54
2019-01-29T02:20:49.759Z,97985.48
2019-01-29T02:23:18.128Z,97988.97
2019-01-29T02:25:46.510Z,97987.28
2019-01-29T02:28:14.886Z,97992.92
2019-01-29T02:30:43.261Z,97988.13
2019-01-29T02:33:11.684Z,97986.69
2019-01-29T02:35:40.001Z,97989.32
2019-01-29T02:38:08.388Z,97987.53
2019-01-29T02:40:36.769Z,97997.09
2019-01-29T02:43:05.303Z,97999.73
2019-01-29T02:45:33.763Z,97994.12
2019-01-29T02:48:02.151Z,97994.97
2019-01-29T02:50:30.542Z,97999.73
2019-01-29T02:52:58.960Z,98002.37
2019-01-29T02:55:27.345Z,98004.53
2019-01-29T02:57:55.718Z,98001.05
2019-01-29T03:00:26.442Z,98012.78
2019-01-29T03:02:54.983Z,98008.02
2019-01-29T03:05:23.439Z,98007.52
2019-01-29T03:07:52.242Z,98007.05
2019-01-29T03:10:22.864Z,98010.65
2019-01-29T03:12:51.303Z,98005.38
2019-01-29T03:15:22.719Z,98011.47
2019-01-29T03:17:51.154Z,98017.58
2019-01-29T03:20:19.603Z,98021.53
2019-01-29T03:22:47.970Z,98020.22
2019-01-29T03:25:16.439Z,98025.36
2019-01-29T03:27:44.817Z,98013.98
2019-01-29T03:30:15.442Z,98012.78
2019-01-29T03:32:43.826Z,98019.25
2019-01-29T03:35:12.347Z,98024.89
2019-01-29T03:37:41.666Z,98018.77
2019-01-29T03:40:15.620Z,98022.73
2019-01-29T03:42:44.001Z,98023.58
2019-01-29T03:45:15.126Z,98025.74
2019-01-29T03:47:43.755Z,98025.74
2019-01-29T03:50:14.571Z,98025.12
2019-01-29T03:52:43.077Z,98020.81
2019-01-29T03:55:11.979Z,98019.97
2019-01-29T03:57:40.420Z,98030.04
2019-01-29T04:00:11.836Z,98032.20
2019-01-29T04:02:40.202Z,98035.31
2019-01-29T04:05:08.821Z,98030.39
2019-01-29T04:07:37.203Z,98032.20
2019-01-29T04:10:08.699Z,98033.02
2019-01-29T04:12:37.065Z,98036.03
2019-01-29T04:15:08.532Z,98041.77
2019-01-29T04:17:36.909Z,98040.83
2019-01-29T04:20:08.026Z,98030.89
2019-01-29T04:22:36.404Z,98040.92
2019-01-29T04:25:05.813Z,98040.92
2019-01-29T04:27:34.270Z,98045.72
2019-01-29T04:30:02.633Z,98044.41
2019-01-29T04:32:31.017Z,98045.72
2019-01-29T04:34:59.378Z,98038.66
2019-01-29T04:37:27.756Z,98035.56
2019-01-29T04:39:56.146Z,98035.91
2019-01-29T04:42:24.526Z,98029.19
2019-01-29T04:44:52.898Z,98039.02
2019-01-29T04:47:21.273Z,98036.38
2019-01-29T04:49:49.638Z,98037.23
2019-01-29T04:52:18.029Z,98037.70
2019-01-29T04:54:46.397Z,98034.59
2019-01-29T04:57:14.778Z,98030.64
2019-01-29T04:59:43.156Z,98026.34
2019-01-29T05:02:12.303Z,98031.48
2019-01-29T05:04:40.670Z,98035.44
2019-01-29T05:07:09.056Z,98028.85
2019-01-29T05:09:37.436Z,98030.64
2019-01-29T05:12:05.823Z,98030.64
2019-01-29T05:14:34.191Z,98033.74
2019-01-29T05:17:02.570Z,98032.30
2019-01-29T05:19:30.943Z,98038.89
2019-01-29T05:21:59.320Z,98033.63
2019-01-29T05:24:27.703Z,98036.38
2019-01-29T05:26:56.062Z,98034.94
2019-01-29T05:29:24.448Z,98033.74
2019-01-29T05:31:52.829Z,98030.64
2019-01-29T05:34:21.200Z,98029.20
2019-01-29T05:36:49.587Z,98030.30
2019-01-29T05:39:17.950Z,98028.98
2019-01-29T05:41:46.329Z,98035.56
2019-01-29T05:44:14.695Z,98034.25
2019-01-29T05:46:43.098Z,98031.11
2019-01-29T05:49:11.469Z,98033.40
2019-01-29T05:51:40.688Z,98025.84
2019-01-29T05:54:15.794Z,98033.74
2019-01-29T05:56:39.194Z,98028.98
2019-01-29T05:59:07.557Z,98027.66
2019-01-29T06:01:36.802Z,98028.98
2019-01-29T06:04:05.339Z,98033.28
2019-01-29T06:06:33.732Z,98029.80
2019-01-29T06:09:02.078Z,98030.64
2019-01-29T06:11:30.459Z,98028.47
2019-01-29T06:13:58.833Z,98031.95
2019-01-29T06:16:27.217Z,98030.77
2019-01-29T06:18:55.594Z,98034.59
2019-01-29T06:21:23.974Z,98032.42
2019-01-29T06:23:52.342Z,98031.95
2019-01-29T06:26:20.727Z,98027.28
2019-01-29T06:28:49.086Z,98030.30
2019-01-29T06:31:17.460Z,98028.59
2019-01-29T06:33:45.841Z,98028.59
2019-01-29T06:36:14.207Z,98025.96
2019-01-29T06:38:43.127Z,98023.33
2019-01-29T06:41:11.476Z,98026.81
2019-01-29T06:43:39.857Z,98027.28
2019-01-29T06:46:08.225Z,98030.89
2019-01-29T06:48:36.604Z,98036.03
2019-01-29T06:51:05.385Z,98035.19
2019-01-29T06:53:33.766Z,98038.20
2019-01-29T06:56:02.134Z,98037.82
2019-01-29T06:58:30.525Z,98033.40
2019-01-29T07:00:58.898Z,98034.94
2019-01-29T07:03:27.269Z,98034.25
2019-01-29T07:05:55.658Z,98035.56
2019-01-29T07:08:24.934Z,98039.61
2019-01-29T07:10:53.739Z,98038.79
2019-01-29T07:13:22.123Z,98039.73
2019-01-29T07:16:10.162Z,98043.34
2019-01-29T07:18:41.093Z,98041.55
2019-01-29T07:21:09.838Z,98049.19
2019-01-29T07:23:38.385Z,98049.66
2019-01-29T07:26:06.751Z,98053.14
2019-01-29T07:28:35.131Z,98051.36
2019-01-29T07:31:03.839Z,98047.15
2019-01-29T07:33:32.210Z,98051.48
2019-01-29T07:36:00.572Z,98058.54
2019-01-29T07:38:28.955Z,98060.20
2019-01-29T07:40:57.322Z,98060.33
2019-01-29T07:43:25.698Z,98062.02
2019-01-29T07:45:54.061Z,98062.61
2019-01-29T07:48:22.440Z,98065.97
2019-01-29T07:50:50.898Z,98063.34
2019-01-29T07:53:19.600Z,98061.29
2019-01-29T07:55:47.934Z,98055.05
2019-01-29T07:58:16.592Z,98060.83
2019-01-29T08:00:44.960Z,98062.14
2019-01-29T08:03:13.727Z,98059.98
2019-01-29T08:05:42.263Z,98062.73
2019-01-29T08:08:10.659Z,98061.76
2019-01-29T08:10:42.051Z,98057.46
2019-01-29T08:13:10.437Z,98056.15
2019-01-29T08:15:40.736Z,98057.94
2019-01-29T08:18:09.564Z,98058.90
2019-01-29T08:20:37.929Z,98056.27
2019-01-29T08:23:06.318Z,98050.50
2019-01-29T08:25:34.686Z,98047.86
2019-01-29T08:28:03.304Z,98053.63
2019-01-29T08:30:33.746Z,98048.83
2019-01-29T08:33:02.124Z,98055.89
2019-01-29T08:35:30.554Z,98052.78
2019-01-29T08:37:58.928Z,98053.76
2019-01-29T08:40:27.310Z,98040.31
2019-01-29T08:42:55.709Z,98059.49
2019-01-29T08:45:24.083Z,98052.91
2019-01-29T08:47:52.461Z,98044.16
2019-01-29T08:50:26.513Z,98050.74
2019-01-29T08:52:54.902Z,98051.59
2019-01-29T08:55:23.345Z,98050.27
2019-01-29T08:57:51.731Z,98050.39
2019-01-29T09:00:21.437Z,98052.18
2019-01-29T09:02:49.895Z,98050.39
2019-01-29T09:05:18.270Z,98049.55
2019-01-29T09:07:46.644Z,98044.28
2019-01-29T09:10:19.503Z,98043.08
2019-01-29T09:12:48.031Z,98048.70
2019-01-29T09:15:21.523Z,98039.60
2019-01-29T09:17:50.080Z,98043.55
2019-01-29T09:20:20.482Z,98043.55
2019-01-29T09:22:48.991Z,98041.03
2019-01-29T09:25:20.831Z,98030.97
2019-01-29T09:27:47.536Z,98040.19
2019-01-29T09:30:20.586Z,98028.84
2019-01-29T09:32:49.190Z,98025.23
2019-01-29T09:35:17.568Z,98024.51
2019-01-29T09:37:45.944Z,98020.09
2019-01-29T09:40:30.673Z,98021.06
2019-01-29T09:42:59.052Z,98020.09
2019-01-29T09:45:27.596Z,98021.88
2019-01-29T09:47:56.042Z,98015.80
2019-01-29T09:50:24.584Z,98017.11
2019-01-29T09:52:53.438Z,98018.42
2019-01-29T09:55:28.805Z,98010.99
2019-01-29T09:57:53.355Z,98001.30
2019-01-29T10:00:30.117Z,98005.72
2019-01-29T10:02:58.576Z,98002.13
2019-01-29T10:05:27.182Z,98005.72
2019-01-29T10:07:55.733Z,98002.63
2019-01-29T10:10:24.245Z,98004.28
2019-01-29T10:12:52.684Z,97999.87
2019-01-29T10:15:29.308Z,97996.39
2019-01-29T10:17:57.683Z,97993.75
2019-01-29T10:20:27.113Z,97987.17
2019-01-29T10:22:55.485Z,97989.45
2019-01-29T10:25:23.939Z,97988.14
2019-01-29T10:27:52.315Z,97984.06
2019-01-29T10:30:23.642Z,97976.63
2019-01-29T10:32:52.078Z,97974.34
2019-01-29T10:35:22.807Z,97967.17
2019-01-29T10:37:51.177Z,97953.88
2019-01-29T10:40:21.792Z,97955.57
2019-01-29T10:42:50.334Z,97954.98
2019-01-29T10:45:20.753Z,97948.73
2019-01-29T10:47:49.129Z,97944.92
2019-01-29T10:50:23.043Z,97938.20
2019-01-29T10:52:52.241Z,97935.45
2019-01-29T10:55:20.631Z,97930.05
2019-01-29T10:57:49.291Z,97925.85
2019-01-29T11:00:32.807Z,97924.53
2019-01-29T11:03:01.616Z,97922.62
2019-01-29T11:05:30.333Z,97922.02
2019-01-29T11:07:58.696Z,97920.11
2019-01-29T11:10:27.077Z,97912.55
2019-01-29T11:12:55.441Z,97905.71
2019-01-29T11:15:29.521Z,97910.38
2019-01-29T11:17:58.325Z,97907.50
2019-01-29T11:20:26.703Z,97905.23
2019-01-29T11:22:55.239Z,97901.03
2019-01-29T11:25:29.235Z,97895.03
2019-01-29T11:27:57.602Z,97889.63
2019-01-29T11:30:33.399Z,97893.93
2019-01-29T11:33:01.762Z,97891.67
2019-01-29T11:35:30.310Z,97890.70
2019-01-29T11:37:58.754Z,97883.26
2019-01-29T11:40:32.013Z,97881.81
2019-01-29T11:43:00.513Z,97874.28
2019-01-29T11:45:37.800Z,97867.69
2019-01-29T11:48:06.241Z,97865.40
2019-01-29T11:50:34.626Z,97865.40
2019-01-29T11:53:02.983Z,97860.84
2019-01-29T11:55:31.369Z,97853.78
2019-01-29T11:57:59.736Z,97851.48
2019-01-29T12:00:38.041Z,97847.53
2019-01-29T12:03:06.751Z,97845.75
2019-01-29T12:05:35.203Z,97836.65
2019-01-29T12:08:04.034Z,97840.13
2019-01-29T12:10:32.421Z,97832.31
2019-01-29T12:13:02.414Z,97833.14
2019-01-29T12:15:39.732Z,97829.13
2019-01-29T12:18:08.366Z,97828.98
2019-01-29T12:20:36.755Z,97821.81
2019-01-29T12:23:05.300Z,97823.25
2019-01-29T12:25:33.695Z,97827.28
2019-01-29T12:28:02.056Z,97823.56
2019-01-29T12:30:30.971Z,97817.42
2019-01-29T12:33:01.874Z,97817.02
2019-01-29T12:35:30.427Z,97810.16
2019-01-29T12:37:58.800Z,97805.26
2019-01-29T12:40:27.187Z,97807.39
2019-01-29T12:42:55.562Z,97804.89
2019-01-29T12:45:24.623Z,97793.02
2019-01-29T12:47:53.162Z,97797.48
2019-01-29T12:50:30.151Z,97789.67
2019-01-29T12:53:00.514Z,97787.88
2019-01-29T12:55:28.969Z,97788.98
2019-01-29T12:57:57.423Z,97784.52
2019-01-29T13:00:27.436Z,97778.17
2019-01-29T13:02:55.797Z,97777.80
2019-01-29T13:05:24.269Z,97775.16
2019-01-29T13:07:52.776Z,97779.25
2019-01-29T13:10:25.849Z,97773.16
2019-01-29T13:12:55.020Z,97767.52
2019-01-29T13:15:34.089Z,97768.63
2019-01-29T13:18:02.895Z,97764.30
2019-01-29T13:20:39.227Z,97760.47
2019-01-29T13:23:07.676Z,97757.97
2019-01-29T13:25:36.051Z,97753.67
2019-01-29T13:28:05.170Z,97752.97
2019-01-29T13:30:35.794Z,97751.78
2019-01-29T13:33:06.811Z,97748.77
2019-01-29T13:35:36.933Z,97740.66
2019-01-29T13:38:06.742Z,97740.79
2019-01-29T13:40:35.122Z,97729.87
2019-01-29T13:43:03.483Z,97734.33
2019-01-29T13:45:31.865Z,97730.00
2019-01-29T13:48:00.238Z,97718.23
2019-01-29T13:50:37.694Z,97726.62
2019-01-29T13:53:06.710Z,97716.08
2019-01-29T13:55:35.258Z,97715.59
2019-01-29T13:58:04.314Z,97714.55
2019-01-29T14:00:34.233Z,97710.59
2019-01-29T14:03:03.290Z,97708.43
2019-01-29T14:05:31.653Z,97706.64
2019-01-29T14:08:00.054Z,97702.82
2019-01-29T14:10:28.859Z,97697.68
2019-01-29T14:12:57.242Z,97690.25
2019-01-29T14:15:34.007Z,97692.88
2019-01-29T14:18:02.383Z,97688.08
2019-01-29T14:20:30.745Z,97681.63
2019-01-29T14:22:59.255Z,97672.87
2019-01-29T14:25:27.790Z,97677.33
2019-01-29T14:27:56.183Z,97679.59
2019-01-29T14:30:29.136Z,97670.38
2019-01-29T14:32:57.700Z,97664.28
2019-01-29T14:35:26.062Z,97665.23
2019-01-29T14:38:12.004Z,97658.30
2019-01-29T14:40:40.371Z,97656.14
2019-01-29T14:43:11.495Z,97646.58
2019-01-29T14:45:39.864Z,97645.87
2019-01-29T14:48:08.238Z,97638.43
2019-01-29T14:50:36.611Z,97634.98
2019-01-29T14:53:05.346Z,97631.97
2019-01-29T14:55:33.687Z,97628.02
2019-01-29T14:58:02.072Z,97631.97
2019-01-29T15:00:33.702Z,97627.69
2019-01-29T15:03:02.077Z,97622.04
2019-01-29T15:05:30.526Z,97620.38
2019-01-29T15:07:58.991Z,97620.25
2019-01-29T15:10:29.564Z,97612.75
2019-01-29T15:12:57.950Z,97607.47
2019-01-29T15:15:38.809Z,97609.73
2019-01-29T15:18:14.999Z,97604.47
2019-01-29T15:20:43.430Z,97613.09
2019-01-29T15:23:11.887Z,97606.77
2019-01-29T15:25:40.251Z,97603.89
2019-01-29T15:28:08.626Z,97601.39
2019-01-29T15:30:36.992Z,97605.72
2019-01-29T15:33:05.432Z,97598.28
2019-01-29T15:35:33.809Z,97596.62
2019-01-29T15:38:02.206Z,97589.67
2019-01-29T15:40:30.581Z,97588.83
2019-01-29T15:42:58.964Z,97593.42
2019-01-29T15:45:29.136Z,97592.58
2019-01-29T15:47:57.509Z,97593.05
2019-01-29T15:50:31.120Z,97587.58
2019-01-29T15:52:59.672Z,97583.75
2019-01-29T15:55:28.180Z,97578.59
2019-01-29T15:57:56.705Z,97578.59
2019-01-29T16:00:35.602Z,97577.78
2019-01-29T16:03:04.043Z,97578.39
2019-01-29T16:05:34.252Z,97572.41
2019-01-29T16:08:02.797Z,97573.73
2019-01-29T16:10:39.891Z,97570.25
2019-01-29T16:13:07.187Z,97574.33
2019-01-29T16:15:35.611Z,97566.09
2019-01-29T16:18:04.110Z,97557.14
2019-01-29T16:20:32.472Z,97556.77
2019-01-29T16:23:00.863Z,97558.72
2019-01-29T16:25:30.974Z,97551.43
2019-01-29T16:27:59.348Z,97555.85
2019-01-29T16:30:38.565Z,97550.86
2019-01-29T16:33:07.011Z,97550.34
2019-01-29T16:35:39.884Z,97544.88
2019-01-29T16:38:09.235Z,97544.88
2019-01-29T16:40:40.027Z,97535.92
2019-01-29T16:43:08.469Z,97528.63
2019-01-29T16:45:37.270Z,97528.16
2019-01-29T16:48:08.152Z,97523.02
2019-01-29T16:50:36.591Z,97524.21
2019-01-29T16:53:06.608Z,97520.49
2019-01-29T16:55:35.292Z,97512.86
2019-01-29T16:58:04.633Z,97509.05
2019-01-29T17:00:34.538Z,97515.16
2019-01-29T17:03:02.993Z,97502.59
2019-01-29T17:05:31.705Z,97498.31
2019-01-29T17:08:00.159Z,97500.44
2019-01-29T17:10:30.470Z,97490.41
2019-01-29T17:12:58.855Z,97489.70
2019-01-29T17:15:32.163Z,97482.41
2019-01-29T17:18:02.020Z,97475.48
2019-01-29T17:20:44.052Z,97480.75
2019-01-29T17:23:12.497Z,97475.59
2019-01-29T17:25:41.052Z,97468.33
2019-01-29T17:28:09.487Z,97463.17
2019-01-29T17:30:40.438Z,97459.22
2019-01-29T17:33:09.269Z,97453.58
2019-01-29T17:35:39.581Z,97450.61
2019-01-29T17:38:08.108Z,97448.11
2019-01-29T17:40:36.468Z,97445.48
2019-01-29T17:43:05.385Z,97442.95
2019-01-29T17:45:42.490Z,97442.27
2019-01-29T17:48:10.874Z,97436.30
2019-01-29T17:50:41.580Z,97428.54
2019-01-29T17:53:10.020Z,97420.98
2019-01-29T17:55:39.631Z,97422.67
2019-01-29T17:58:09.153Z,97417.16
2019-01-29T18:00:39.159Z,97414.53
2019-01-29T18:03:07.989Z,97415.98
2019-01-29T18:05:36.434Z,97413.48
2019-01-29T18:08:05.427Z,97410.86
2019-01-29T18:10:33.794Z,97402.99
2019-01-29T18:13:02.173Z,97400.27
2019-01-29T18:15:31.590Z,97389.88
2019-01-29T18:17:59.973Z,97379.61
2019-01-29T18:20:28.419Z,97379.61
2019-01-29T18:22:56.849Z,97380.59
2019-01-29T18:25:25.219Z,97371.38
2019-01-29T18:28:00.904Z,97370.44
2019-01-29T18:30:36.898Z,97366.16
2019-01-29T18:33:05.730Z,97358.90
2019-01-29T18:35:34.070Z,97364.87
2019-01-29T18:38:02.440Z,97363.75
2019-01-29T18:40:36.982Z,97355.16
2019-01-29T18:43:05.525Z,97351.72
2019-01-29T18:45:33.898Z,97342.88
2019-01-29T18:48:02.283Z,97344.19
2019-01-29T18:50:30.660Z,97342.23
2019-01-29T18:52:59.029Z,97336.64
2019-01-29T18:55:27.700Z,97343.92
2019-01-29T18:57:56.069Z,97329.35
2019-01-29T19:00:26.095Z,97321.59
2019-01-29T19:02:54.523Z,97317.48
2019-01-29T19:05:24.854Z,97295.43
2019-01-29T19:07:53.222Z,97293.63
2019-01-29T19:10:22.409Z,97300.25
2019-01-29T19:12:50.927Z,97312.80
2019-01-29T19:15:24.566Z,97306.65
2019-01-29T19:17:52.942Z,97317.37
2019-01-29T19:20:26.169Z,97318.66
2019-01-29T19:22:54.808Z,97322.44
2019-01-29T19:25:23.656Z,97316.30
2019-01-29T19:27:52.576Z,97312.93
2019-01-29T19:30:32.389Z,97308.14
2019-01-29T19:33:00.763Z,97305.75
2019-01-29T19:35:29.309Z,97310.03
2019-01-29T19:37:57.766Z,97311.68
2019-01-29T19:40:26.292Z,97304.73
2019-01-29T19:42:54.686Z,97290.16
2019-01-29T19:45:28.804Z,97288.88
2019-01-29T19:47:58.670Z,97284.47
2019-01-29T19:50:29.320Z,97279.54
2019-01-29T19:52:59.283Z,97278.89
2019-01-29T19:55:28.099Z,97277.16
2019-01-29T19:57:56.488Z,97273.31
2019-01-29T20:00:33.600Z,97272.33
2019-01-29T20:03:02.123Z,97269.23
2019-01-29T20:05:30.543Z,97268.25
2019-01-29T20:07:58.971Z,97265.00
2019-01-29T20:10:27.369Z,97263.30
2019-01-29T20:12:55.756Z,97257.26
2019-01-29T20:15:25.695Z,97253.77
2019-01-29T20:17:56.022Z,97253.83
2019-01-29T20:20:33.711Z,97239.82
2019-01-29T20:23:07.962Z,97244.00
2019-01-29T20:25:32.379Z,97241.56
2019-01-29T20:28:00.754Z,97236.86
2019-01-29T20:30:32.046Z,97231.92
2019-01-29T20:33:00.427Z,97226.84
2019-01-29T20:35:29.083Z,97230.41
2019-01-29T20:37:57.458Z,97218.57
2019-01-29T20:40:25.925Z,97207.28
2019-01-29T20:42:54.312Z,97206.02
2019-01-29T20:45:22.875Z,97206.72
2019-01-29T20:47:52.727Z,97200.00
2019-01-29T20:50:27.217Z,97200.51
2019-01-29T20:52:59.493Z,97193.37
2019-01-29T20:55:27.960Z,97200.28
2019-01-29T20:57:56.360Z,97192.80
2019-01-29T21:00:28.144Z,97188.66
2019-01-29T21:02:56.584Z,97190.31
2019-01-29T21:05:24.975Z,97190.17
2019-01-29T21:07:53.441Z,97182.89
2019-01-29T21:10:23.906Z,97182.86
2019-01-29T21:12:52.350Z,97182.86
2019-01-29T21:15:22.843Z,97169.64
2019-01-29T21:17:51.360Z,97167.95
2019-01-29T21:20:30.658Z,97166.58
2019-01-29T21:22:59.239Z,97162.64
2019-01-29T21:25:27.728Z,97162.28
2019-01-29T21:27:56.228Z,97149.95
2019-01-29T21:30:35.466Z,97148.86
2019-01-29T21:33:03.915Z,97143.35
2019-01-29T21:35:32.312Z,97132.92
2019-01-29T21:38:00.693Z,97134.28
2019-01-29T21:40:29.155Z,97141.56
2019-01-29T21:42:57.527Z,97134.22
2019-01-29T21:45:27.024Z,97132.75
2019-01-29T21:47:57.843Z,97129.09
2019-01-29T21:50:31.413Z,97128.00
2019-01-29T21:53:03.046Z,97125.22
2019-01-29T21:55:38.348Z,97114.61
2019-01-29T21:58:07.115Z,97110.78
2019-01-29T22:00:37.843Z,97101.92
2019-01-29T22:03:06.957Z,97103.02
2019-01-29T22:05:35.598Z,97098.23
2019-01-29T22:08:07.949Z,97094.83
2019-01-29T22:10:36.492Z,97097.97
2019-01-29T22:13:06.317Z,97096.58
2019-01-29T22:15:34.707Z,97089.56
2019-01-29T22:18:03.114Z,97090.11
2019-01-29T22:20:34.538Z,97081.95
2019-01-29T22:23:03.034Z,97076.24
2019-01-29T22:25:32.394Z,97074.45
2019-01-29T22:28:03.008Z,97069.91
2019-01-29T22:30:39.833Z,97068.74
2019-01-29T22:33:08.343Z,97066.59
2019-01-29T22:35:36.794Z,97059.23
2019-01-29T22:38:06.120Z,97054.88
2019-01-29T22:40:34.608Z,97049.53
2019-01-29T22:43:02.994Z,97047.44
2019-01-29T22:45:31.432Z,97042.80
2019-01-29T22:47:59.933Z,97036.94
2019-01-29T22:50:30.413Z,97034.36
2019-01-29T22:52:58.808Z,97028.99
2019-01-29T22:55:27.222Z,97025.62
2019-01-29T22:57:55.707Z,97019.72
2019-01-29T23:00:31.767Z,97010.83
2019-01-29T23:03:00.172Z,97012.50
2019-01-29T23:05:28.605Z,97015.44
2019-01-29T23:07:57.034Z,97007.53
2019-01-29T23:10:25.403Z,97000.28
2019-01-29T23:12:53.781Z,96998.45
2019-01-29T23:15:22.226Z,96989.56
2019-01-29T23:17:53.048Z,96985.07
2019-01-29T23:20:21.454Z,96975.91
2019-01-29T23:22:49.829Z,96973.20
2019-01-29T23:25:18.214Z,96974.59
2019-01-29T23:27:46.684Z,96965.53
2019-01-29T23:30:20.304Z,96967.46
2019-01-29T23:32:48.678Z,96956.30
2019-01-29T23:35:17.053Z,96946.97
2019-01-29T23:37:45.436Z,96941.45
2019-01-29T23:40:17.047Z,96936.73
2019-01-29T23:42:45.421Z,96927.98
2019-01-29T23:45:15.429Z,96924.73
2019-01-29T23:47:43.816Z,96924.39
2019-01-29T23:50:14.234Z,96915.03
2019-01-29T23:52:42.630Z,96915.50
2019-01-29T23:55:11.933Z,96902.73
2019-01-29T23:57:40.309Z,96903.41
